createdAt,value
2023-03-17T00:00:30.373Z,99664.61
2023-03-17T00:03:49.559Z,99669.91
2023-03-17T00:07:00.982Z,99672.58
2023-03-17T00:10:19.629Z,99672.58
2023-03-17T00:13:33.467Z,99665.77
2023-03-17T00:16:48.679Z,99659.74
2023-03-17T00:20:00.701Z,99659.07
2023-03-17T00:23:18.505Z,99655.24
2023-03-17T00:29:31.759Z,99661.11
2023-03-17T00:32:45.693Z,99655.09
2023-03-17T00:35:59.551Z,99657.05
2023-03-17T00:39:19.432Z,99656.04
2023-03-17T00:42:31.721Z,99662.21
2023-03-17T00:45:44.646Z,99659.73
2023-03-17T00:48:57.013Z,99663.34
2023-03-17T00:52:09.722Z,99662.64
2023-03-17T00:55:22.811Z,99669.73
2023-03-17T00:58:37.673Z,99668.88
2023-03-17T01:01:50.215Z,99659.45
2023-03-17T01:05:06.726Z,99661.23
2023-03-17T01:08:17.920Z,99661.44
2023-03-17T01:11:29.980Z,99661.44
2023-03-17T01:14:42.086Z,99657.23
2023-03-17T01:17:55.996Z,99666.09
2023-03-17T01:21:09.666Z,99666.09
2023-03-17T01:24:21.973Z,99661.66
2023-03-17T01:27:36.585Z,99658.27
2023-03-17T01:30:50.384Z,99657.67
2023-03-17T01:34:04.338Z,99665.50
2023-03-17T01:37:17.253Z,99666.30
2023-03-17T01:40:40.377Z,99662.80
2023-03-17T01:43:55.224Z,99649.30
2023-03-17T01:47:07.248Z,99654.59
2023-03-17T01:50:19.812Z,99643.36
2023-03-17T01:53:32.656Z,99644.08
2023-03-17T01:56:49.231Z,99639.66
2023-03-17T02:00:05.987Z,99637.14
2023-03-17T02:03:20.618Z,99647.69
2023-03-17T02:06:34.926Z,99644.48
2023-03-17T02:09:48.694Z,99637.87
2023-03-17T02:13:05.954Z,99626.44
2023-03-17T02:16:21.995Z,99626.46
2023-03-17T02:19:35.380Z,99636.06
2023-03-17T02:22:47.425Z,99622.11
2023-03-17T02:26:01.108Z,99628.19
2023-03-17T02:29:13.220Z,99638.06
2023-03-17T02:32:26.922Z,99624.92
2023-03-17T02:35:41.612Z,99625.64
2023-03-17T02:38:54.369Z,99622.31
2023-03-17T02:42:07.175Z,99622.31
2023-03-17T02:45:20.747Z,99635.28
2023-03-17T02:48:34.240Z,99626.72
2023-03-17T02:51:46.187Z,99625.92
2023-03-17T02:54:58.647Z,99624.23
2023-03-17T02:58:10.855Z,99622.70
2023-03-17T03:01:23.112Z,99629.84
2023-03-17T03:04:36.204Z,99638.74
2023-03-17T03:07:48.304Z,99635.45
2023-03-17T03:11:02.668Z,99632.14
2023-03-17T03:14:15.951Z,99640.16
2023-03-17T03:17:28.364Z,99639.42
2023-03-17T03:20:40.384Z,99641.04
2023-03-17T03:23:52.511Z,99639.48
2023-03-17T03:27:04.582Z,99648.16
2023-03-17T03:30:20.864Z,99648.34
2023-03-17T03:33:34.012Z,99633.47
2023-03-17T03:36:46.552Z,99637.02
2023-03-17T03:39:59.084Z,99636.20
2023-03-17T03:43:22.300Z,99641.23
2023-03-17T03:46:26.843Z,99630.00
2023-03-17T03:49:38.919Z,99610.11
2023-03-17T03:52:51.202Z,99616.12
2023-03-17T03:56:04.408Z,99620.69
2023-03-17T03:59:16.743Z,99627.53
2023-03-17T04:02:28.669Z,99642.41
2023-03-17T04:05:41.096Z,99642.54
2023-03-17T04:08:53.128Z,99641.55
2023-03-17T04:12:04.991Z,99641.34
2023-03-17T04:15:24.312Z,99647.38
2023-03-17T04:18:36.408Z,99641.34
2023-03-17T04:21:49.009Z,99644.94
2023-03-17T04:25:01.125Z,99638.25
2023-03-17T04:28:14.345Z,99639.23
2023-03-17T04:31:26.884Z,99627.08
2023-03-17T04:34:39.107Z,99635.15
2023-03-17T04:37:51.728Z,99642.44
2023-03-17T04:41:04.106Z,99642.16
2023-03-17T04:44:18.734Z,99647.64
2023-03-17T04:47:31.295Z,99646.78
2023-03-17T04:50:43.326Z,99646.73
2023-03-17T04:53:54.157Z,99647.47
2023-03-17T04:57:09.225Z,99641.32
2023-03-17T05:00:26.964Z,99638.04
2023-03-17T05:03:39.995Z,99637.98
2023-03-17T05:06:52.049Z,99638.84
2023-03-17T05:10:04.321Z,99635.44
2023-03-17T05:13:16.813Z,99639.03
2023-03-17T05:16:29.021Z,99634.63
2023-03-17T05:19:41.437Z,99637.11
2023-03-17T05:22:53.746Z,99646.53
2023-03-17T05:26:06.585Z,99645.84
2023-03-17T05:29:19.391Z,99644.91
2023-03-17T05:32:32.356Z,99662.17
2023-03-17T05:35:44.562Z,99647.47
2023-03-17T05:38:56.833Z,99654.16
2023-03-17T05:42:09.346Z,99667.75
2023-03-17T05:45:22.246Z,99666.78
2023-03-17T05:48:35.173Z,99660.56
2023-03-17T05:51:47.609Z,99662.20
2023-03-17T05:54:59.985Z,99654.79
2023-03-17T05:58:13.129Z,99652.98
2023-03-17T06:01:25.347Z,99654.30
2023-03-17T06:04:38.387Z,99652.19
2023-03-17T06:07:54.931Z,99651.55
2023-03-17T06:11:05.032Z,99649.89
2023-03-17T06:14:17.271Z,99644.94
2023-03-17T06:17:29.932Z,99642.55
2023-03-17T06:20:42.253Z,99651.59
2023-03-17T06:23:54.683Z,99651.66
2023-03-17T06:27:06.953Z,99655.19
2023-03-17T06:30:21.156Z,99650.34
2023-03-17T06:33:34.554Z,99648.02
2023-03-17T06:36:46.997Z,99652.98
2023-03-17T06:40:01.037Z,99649.53
2023-03-17T06:43:13.553Z,99650.88
2023-03-17T06:46:25.643Z,99641.13
2023-03-17T06:49:38.327Z,99639.75
2023-03-17T06:52:50.435Z,99641.20
2023-03-17T06:56:03.203Z,99637.28
2023-03-17T06:59:15.805Z,99637.41
2023-03-17T07:02:28.145Z,99632.07
2023-03-17T07:05:40.527Z,99637.93
2023-03-17T07:08:53.664Z,99635.82
2023-03-17T07:12:06.710Z,99629.67
2023-03-17T07:15:22.826Z,99625.97
2023-03-17T07:18:36.162Z,99633.22
2023-03-17T07:21:50.395Z,99629.05
2023-03-17T07:25:08.631Z,99621.90
2023-03-17T07:28:22.674Z,99612.03
2023-03-17T07:31:37.546Z,99599.66
2023-03-17T07:34:50.492Z,99605.15
2023-03-17T07:38:05.364Z,99600.94
2023-03-17T07:41:17.506Z,99592.69
2023-03-17T07:44:30.461Z,99597.23
2023-03-17T07:47:42.843Z,99590.26
2023-03-17T07:50:54.919Z,99586.88
2023-03-17T07:54:08.255Z,99586.33
2023-03-17T07:57:20.930Z,99576.01
2023-03-17T08:00:34.920Z,99574.59
2023-03-17T08:03:48.084Z,99576.98
2023-03-17T08:07:01.718Z,99565.56
2023-03-17T08:10:18.498Z,99564.92
2023-03-17T08:13:30.701Z,99560.36
2023-03-17T08:16:43.059Z,99552.41
2023-03-17T08:19:55.170Z,99552.08
2023-03-17T08:23:07.602Z,99554.44
2023-03-17T08:26:20.774Z,99545.06
2023-03-17T08:29:33.773Z,99550.98
2023-03-17T08:32:46.513Z,99544.34
2023-03-17T08:35:59.255Z,99544.58
2023-03-17T08:39:11.932Z,99551.86
2023-03-17T08:42:24.055Z,99531.77
2023-03-17T08:45:37.032Z,99544.79
2023-03-17T08:48:51.078Z,99543.86
2023-03-17T08:52:03.591Z,99542.72
2023-03-17T08:55:17.964Z,99539.44
2023-03-17T08:58:30.717Z,99539.73
2023-03-17T09:01:45.063Z,99548.94
2023-03-17T09:04:57.973Z,99537.82
2023-03-17T09:08:10.115Z,99525.85
2023-03-17T09:11:24.715Z,99522.83
2023-03-17T09:14:43.532Z,99525.75
2023-03-17T09:17:51.035Z,99529.22
2023-03-17T09:21:03.724Z,99513.42
2023-03-17T09:24:16.678Z,99515.47
2023-03-17T09:27:28.813Z,99504.83
2023-03-17T09:30:42.670Z,99506.14
2023-03-17T09:33:56.633Z,99502.77
2023-03-17T09:37:10.104Z,99490.06
2023-03-17T09:40:28.541Z,99497.47
2023-03-17T09:43:46.846Z,99493.28
2023-03-17T09:47:07.014Z,99493.27
2023-03-17T09:50:23.937Z,99493.88
2023-03-17T09:53:40.088Z,99494.92
2023-03-17T09:56:57.897Z,99483.80
2023-03-17T10:00:19.131Z,99479.63
2023-03-17T10:03:32.663Z,99468.96
2023-03-17T10:06:48.625Z,99461.21
2023-03-17T10:10:08.856Z,99463.89
2023-03-17T10:13:35.824Z,99441.77
2023-03-17T10:16:54.748Z,99449.81
2023-03-17T10:20:11.733Z,99440.95
2023-03-17T10:23:28.130Z,99442.75
2023-03-17T10:26:46.222Z,99445.63
2023-03-17T10:29:58.409Z,99440.20
2023-03-17T10:33:12.547Z,99435.92
2023-03-17T10:36:37.948Z,99442.57
2023-03-17T10:39:56.283Z,99433.30
2023-03-17T10:43:15.751Z,99432.52
2023-03-17T10:46:31.455Z,99438.00
2023-03-17T10:49:44.567Z,99425.92
2023-03-17T10:53:03.531Z,99418.52
2023-03-17T10:56:25.910Z,99404.07
2023-03-17T10:59:44.921Z,99415.31
2023-03-17T11:03:01.843Z,99403.16
2023-03-17T11:06:16.991Z,99399.89
2023-03-17T11:09:29.539Z,99401.72
2023-03-17T11:12:46.458Z,99390.49
2023-03-17T11:16:01.189Z,99383.47
2023-03-17T11:19:18.866Z,99384.00
2023-03-17T11:22:38.228Z,99398.37
2023-03-17T11:25:57.090Z,99392.25
2023-03-17T11:29:29.222Z,99388.05
2023-03-17T11:32:46.089Z,99377.78
2023-03-17T11:36:00.149Z,99386.38
2023-03-17T11:39:19.086Z,99376.51
2023-03-17T11:42:37.475Z,99369.05
2023-03-17T11:45:55.079Z,99370.24
2023-03-17T11:49:14.972Z,99357.28
2023-03-17T11:52:32.703Z,99322.34
2023-03-17T11:55:51.802Z,99330.28
2023-03-17T11:59:08.855Z,99329.72
2023-03-17T12:02:32.669Z,99330.46
2023-03-17T12:05:47.362Z,99325.89
2023-03-17T12:09:06.544Z,99328.77
2023-03-17T12:12:22.349Z,99320.03
2023-03-17T12:15:40.447Z,99312.78
2023-03-17T12:19:00.849Z,99308.41
2023-03-17T12:22:21.333Z,99304.27
2023-03-17T12:25:37.528Z,99304.22
2023-03-17T12:28:57.438Z,99301.28
2023-03-17T12:32:17.388Z,99307.82
2023-03-17T12:35:37.112Z,99303.40
2023-03-17T12:38:57.315Z,99306.97
2023-03-17T12:42:21.076Z,99299.34
2023-03-17T12:45:57.496Z,99290.92
2023-03-17T12:49:54.303Z,99298.59
2023-03-17T12:53:31.045Z,99288.83
2023-03-17T12:56:49.015Z,99288.71
2023-03-17T13:00:10.329Z,99278.47
2023-03-17T13:03:30.695Z,99266.16
2023-03-17T13:06:49.196Z,99266.81
2023-03-17T13:10:44.815Z,99251.66
2023-03-17T13:14:23.351Z,99259.80
2023-03-17T13:17:41.530Z,99267.13
2023-03-17T13:21:13.896Z,99255.59
2023-03-17T13:24:51.957Z,99256.95
2023-03-17T13:28:28.036Z,99251.61
2023-03-17T13:31:44.517Z,99252.97
2023-03-17T13:34:59.624Z,99248.03
2023-03-17T13:38:36.817Z,99243.13
2023-03-17T13:42:30.235Z,99248.61
2023-03-17T13:45:48.324Z,99247.66
2023-03-17T13:49:01.746Z,99237.86
2023-03-17T13:52:19.540Z,99236.42
2023-03-17T13:55:46.125Z,99237.59
2023-03-17T13:59:05.959Z,99245.58
2023-03-17T14:02:24.913Z,99241.84
2023-03-17T14:05:40.707Z,99234.13
2023-03-17T14:08:58.021Z,99221.34
2023-03-17T14:12:17.901Z,99223.31
2023-03-17T14:15:35.269Z,99219.19
2023-03-17T14:18:50.106Z,99228.99
2023-03-17T14:22:08.858Z,99212.73
2023-03-17T14:25:26.212Z,99204.63
2023-03-17T14:28:40.672Z,99202.22
2023-03-17T14:32:00.599Z,99195.34
2023-03-17T14:35:19.003Z,99202.97
2023-03-17T14:38:35.013Z,99199.89
2023-03-17T14:41:47.033Z,99196.26
2023-03-17T14:45:08.868Z,99193.64
2023-03-17T14:48:25.418Z,99186.64
2023-03-17T14:51:40.367Z,99186.16
2023-03-17T14:54:56.406Z,99182.21
2023-03-17T14:58:16.554Z,99186.97
2023-03-17T15:01:39.720Z,99174.11
2023-03-17T15:05:00.416Z,99183.97
2023-03-17T15:08:46.297Z,99163.03
2023-03-17T15:12:01.084Z,99158.59
2023-03-17T15:15:25.912Z,99159.34
2023-03-17T15:18:38.033Z,99161.89
2023-03-17T15:21:50.748Z,99167.52
2023-03-17T15:25:21.068Z,99160.53
2023-03-17T15:28:37.016Z,99160.56
2023-03-17T15:31:49.243Z,99154.97
2023-03-17T15:35:05.096Z,99155.81
2023-03-17T15:38:19.029Z,99145.03
2023-03-17T15:41:31.370Z,99139.31
2023-03-17T15:44:43.720Z,99141.55
2023-03-17T15:47:56.360Z,99142.68
2023-03-17T15:51:10.360Z,99152.21
2023-03-17T15:54:23.033Z,99154.17
2023-03-17T15:57:35.281Z,99152.31
2023-03-17T16:00:49.935Z,99144.08
2023-03-17T16:04:02.129Z,99138.47
2023-03-17T16:07:18.982Z,99137.92
2023-03-17T16:10:34.626Z,99136.78
2023-03-17T16:13:46.906Z,99135.81
2023-03-17T16:16:59.108Z,99140.38
2023-03-17T16:20:16.898Z,99135.91
2023-03-17T16:23:31.944Z,99130.42
2023-03-17T16:26:45.087Z,99122.69
2023-03-17T16:29:57.512Z,99131.63
2023-03-17T16:33:18.470Z,99125.45
2023-03-17T16:36:32.279Z,99125.41
2023-03-17T16:39:45.289Z,99147.58
2023-03-17T16:42:59.532Z,99142.66
2023-03-17T16:46:14.475Z,99138.72
2023-03-17T16:49:27.597Z,99142.30
2023-03-17T16:52:40.054Z,99140.05
2023-03-17T16:55:53.192Z,99149.02
2023-03-17T16:59:06.064Z,99147.41
2023-03-17T17:02:23.523Z,99144.04
2023-03-17T17:05:37.073Z,99141.70
2023-03-17T17:08:51.695Z,99141.78
2023-03-17T17:12:04.014Z,99148.55
2023-03-17T17:15:21.140Z,99157.27
2023-03-17T17:18:35.410Z,99147.54
2023-03-17T17:21:48.825Z,99150.96
2023-03-17T17:25:01.389Z,99153.84
2023-03-17T17:28:14.683Z,99158.80
2023-03-17T17:31:27.111Z,99168.13
2023-03-17T17:34:39.944Z,99161.16
2023-03-17T17:37:52.428Z,99171.16
2023-03-17T17:41:09.137Z,99172.50
2023-03-17T17:44:21.278Z,99180.92
2023-03-17T17:47:34.602Z,99175.73
2023-03-17T17:50:47.008Z,99177.92
2023-03-17T17:53:59.276Z,99180.06
2023-03-17T17:57:12.108Z,99177.86
2023-03-17T18:00:26.282Z,99178.08
2023-03-17T18:03:40.507Z,99184.30
2023-03-17T18:06:53.618Z,99169.36
2023-03-17T18:10:06.184Z,99183.05
2023-03-17T18:13:18.579Z,99177.00
2023-03-17T18:16:31.638Z,99180.34
2023-03-17T18:19:44.217Z,99184.50
2023-03-17T18:22:56.945Z,99173.05
2023-03-17T18:26:10.850Z,99181.42
2023-03-17T18:29:23.473Z,99181.63
2023-03-17T18:32:36.564Z,99184.23
2023-03-17T18:35:51.146Z,99182.27
2023-03-17T18:39:04.430Z,99175.96
2023-03-17T18:42:17.627Z,99175.25
2023-03-17T18:45:29.922Z,99192.27
2023-03-17T18:48:42.341Z,99180.12
2023-03-17T18:51:54.549Z,99182.45
2023-03-17T18:55:07.477Z,99188.59
2023-03-17T18:58:19.589Z,99184.09
2023-03-17T19:01:32.454Z,99166.98
2023-03-17T19:04:47.178Z,99173.54
2023-03-17T19:07:59.449Z,99175.86
2023-03-17T19:11:13.659Z,99173.65
2023-03-17T19:14:25.908Z,99177.03
2023-03-17T19:17:39.166Z,99178.19
2023-03-17T19:20:51.507Z,99162.78
2023-03-17T19:24:06.377Z,99170.79
2023-03-17T19:27:18.576Z,99160.89
2023-03-17T19:30:31.674Z,99173.33
2023-03-17T19:33:44.666Z,99172.22
2023-03-17T19:36:57.136Z,99163.80
2023-03-17T19:40:13.456Z,99161.57
2023-03-17T19:43:39.394Z,99161.23
2023-03-17T19:46:41.526Z,99159.53
2023-03-17T19:49:54.056Z,99162.47
2023-03-17T19:53:06.452Z,99162.58
2023-03-17T19:56:18.652Z,99163.94
2023-03-17T19:59:31.183Z,99153.81
2023-03-17T20:02:43.588Z,99158.52
2023-03-17T20:05:57.542Z,99154.84
2023-03-17T20:09:10.748Z,99154.61
2023-03-17T20:12:22.901Z,99158.39
2023-03-17T20:15:35.531Z,99158.15
2023-03-17T20:18:47.902Z,99163.59
2023-03-17T20:22:00.527Z,99161.22
2023-03-17T20:25:15.649Z,99160.75
2023-03-17T20:28:30.073Z,99164.52
2023-03-17T20:31:43.879Z,99162.09
2023-03-17T20:34:57.114Z,99157.69
2023-03-17T20:38:10.086Z,99157.12
2023-03-17T20:41:24.793Z,99159.11
2023-03-17T20:44:36.930Z,99159.28
2023-03-17T20:47:49.419Z,99147.20
2023-03-17T20:51:04.042Z,99157.63
2023-03-17T20:54:17.960Z,99162.23
2023-03-17T20:57:30.447Z,99163.47
2023-03-17T21:00:43.067Z,99158.39
2023-03-17T21:03:56.628Z,99162.62
2023-03-17T21:07:09.148Z,99156.13
2023-03-17T21:10:22.619Z,99159.33
2023-03-17T21:13:35.412Z,99155.45
2023-03-17T21:16:48.556Z,99157.16
2023-03-17T21:20:00.915Z,99153.95
2023-03-17T21:23:13.443Z,99148.80
2023-03-17T21:26:26.350Z,99154.78
2023-03-17T21:29:40.508Z,99159.38
2023-03-17T21:32:53.767Z,99150.83
2023-03-17T21:36:06.645Z,99160.48
2023-03-17T21:39:21.332Z,99145.39
2023-03-17T21:42:33.844Z,99155.73
2023-03-17T21:45:46.893Z,99148.77
2023-03-17T21:48:59.400Z,99152.15
2023-03-17T21:52:12.704Z,99158.88
2023-03-17T21:55:25.474Z,99152.66
2023-03-17T21:58:37.694Z,99150.55
2023-03-17T22:01:52.205Z,99160.09
2023-03-17T22:05:04.719Z,99158.83
2023-03-17T22:08:17.034Z,99159.45
2023-03-17T22:11:29.529Z,99156.42
2023-03-17T22:14:42.203Z,99158.28
2023-03-17T22:17:54.474Z,99158.75
2023-03-17T22:21:08.242Z,99161.81
2023-03-17T22:24:21.484Z,99162.50
2023-03-17T22:27:33.702Z,99152.44
2023-03-17T22:30:46.358Z,99159.30
2023-03-17T22:34:02.241Z,99160.64
2023-03-17T22:37:18.444Z,99158.96
2023-03-17T22:40:33.071Z,99157.78
2023-03-17T22:43:46.833Z,99153.63
2023-03-17T22:46:59.359Z,99154.48
2023-03-17T22:50:13.503Z,99146.87
2023-03-17T22:53:25.769Z,99148.63
2023-03-17T22:56:37.938Z,99149.91
2023-03-17T22:59:52.058Z,99158.35
2023-03-17T23:03:04.098Z,99150.67
2023-03-17T23:06:19.582Z,99148.97
2023-03-17T23:09:31.741Z,99154.72
2023-03-17T23:12:44.004Z,99153.01
2023-03-17T23:15:56.561Z,99155.05
2023-03-17T23:19:08.738Z,99155.81
2023-03-17T23:22:21.617Z,99148.95
2023-03-17T23:25:34.043Z,99154.02
2023-03-17T23:28:46.557Z,99158.75
2023-03-17T23:31:58.825Z,99156.61
2023-03-17T23:35:12.724Z,99162.17
2023-03-17T23:38:25.834Z,99159.49
2023-03-17T23:41:37.901Z,99157.11
2023-03-17T23:44:50.453Z,99154.58
2023-03-17T23:48:03.178Z,99157.88
2023-03-17T23:51:16.275Z,99156.43
2023-03-17T23:54:28.848Z,99148.53
2023-03-17T23:57:41.624Z,99141.67
